createdAt,value
2023-05-05T00:01:09.381Z,100687.38
2023-05-05T00:03:36.260Z,100660.22
2023-05-05T00:06:03.138Z,100667.94
2023-05-05T00:08:29.946Z,100680.50
2023-05-05T00:10:57.561Z,100681.34
2023-05-05T00:13:24.645Z,100639.31
2023-05-05T00:15:53.416Z,100676.50
2023-05-05T00:18:21.026Z,100672.44
2023-05-05T00:20:48.072Z,100674.50
2023-05-05T00:23:15.553Z,100677.16
2023-05-05T00:25:42.000Z,100641.13
2023-05-05T00:28:08.662Z,100665.78
2023-05-05T00:30:35.129Z,100660.88
2023-05-05T00:33:01.946Z,100659.66
2023-05-05T00:35:28.493Z,100654.75
2023-05-05T00:37:55.226Z,100661.97
2023-05-05T00:40:22.008Z,100656.75
2023-05-05T00:42:50.811Z,100653.75
2023-05-05T00:45:18.890Z,100650.16
2023-05-05T00:47:48.593Z,100651.84
2023-05-05T00:50:21.322Z,100615.81
2023-05-05T00:52:47.990Z,100612.16
2023-05-05T00:55:14.546Z,100647.06
2023-05-05T00:57:41.092Z,100647.41
2023-05-05T01:00:09.904Z,100653.34
2023-05-05T01:02:36.767Z,100619.28
2023-05-05T01:05:04.080Z,100611.41
2023-05-05T01:07:41.470Z,100630.91
2023-05-05T01:10:19.599Z,100642.56
2023-05-05T01:12:59.806Z,100648.75
2023-05-05T01:16:00.962Z,100627.38
2023-05-05T01:18:53.846Z,100636.13
2023-05-05T01:21:27.453Z,100637.47
2023-05-05T01:24:15.364Z,100645.06
2023-05-05T01:26:55.403Z,100645.19
2023-05-05T01:29:40.798Z,100624.84
2023-05-05T01:32:13.173Z,100634.81
2023-05-05T01:35:04.692Z,100632.09
2023-05-05T01:37:38.412Z,100631.88
2023-05-05T01:40:08.363Z,100627.81
2023-05-05T01:42:36.521Z,100641.44
2023-05-05T01:45:05.054Z,100641.59
2023-05-05T01:47:32.076Z,100633.34
2023-05-05T01:49:59.205Z,100637.94
2023-05-05T01:52:27.025Z,100639.78
2023-05-05T01:54:54.225Z,100643.34
2023-05-05T01:57:21.696Z,100629.03
2023-05-05T01:59:49.681Z,100632.75
2023-05-05T02:02:16.739Z,100640.00
2023-05-05T02:04:44.488Z,100637.81
2023-05-05T02:07:12.781Z,100640.50
2023-05-05T02:09:39.509Z,100629.22
2023-05-05T02:12:06.859Z,100615.50
2023-05-05T02:14:33.876Z,100633.44
2023-05-05T02:17:01.394Z,100618.00
2023-05-05T02:19:33.046Z,100620.34
2023-05-05T02:21:59.681Z,100614.13
2023-05-05T02:24:26.534Z,100646.81
2023-05-05T02:26:54.600Z,100612.81
2023-05-05T02:29:27.910Z,100625.94
2023-05-05T02:31:57.087Z,100640.84
2023-05-05T02:34:26.530Z,100639.72
2023-05-05T02:36:55.824Z,100641.09
2023-05-05T02:39:27.847Z,100626.47
2023-05-05T02:41:55.441Z,100642.72
2023-05-05T02:44:25.060Z,100645.59
2023-05-05T02:46:51.934Z,100655.28
2023-05-05T02:49:18.475Z,100622.22
2023-05-05T02:51:45.118Z,100609.22
2023-05-05T02:54:11.829Z,100632.03
2023-05-05T02:56:51.478Z,100666.97
2023-05-05T02:59:48.613Z,100651.53
2023-05-05T03:02:18.576Z,100660.06
2023-05-05T03:05:02.777Z,100665.81
2023-05-05T03:07:49.616Z,100640.66
2023-05-05T03:10:19.723Z,100663.44
2023-05-05T03:12:48.341Z,100665.44
2023-05-05T03:15:15.333Z,100665.94
2023-05-05T03:17:43.237Z,100661.91
2023-05-05T03:20:10.589Z,100661.06
2023-05-05T03:22:38.041Z,100670.41
2023-05-05T03:25:06.231Z,100657.34
2023-05-05T03:27:33.203Z,100676.44
2023-05-05T03:29:59.743Z,100677.50
2023-05-05T03:32:27.225Z,100679.81
2023-05-05T03:34:53.788Z,100680.22
2023-05-05T03:37:20.387Z,100635.56
2023-05-05T03:39:46.952Z,100685.88
2023-05-05T03:42:13.506Z,100688.84
2023-05-05T03:44:40.166Z,100642.41
2023-05-05T03:47:06.846Z,100662.41
2023-05-05T03:49:33.386Z,100618.09
2023-05-05T03:52:00.099Z,100646.16
2023-05-05T03:54:26.667Z,100686.03
2023-05-05T03:56:53.213Z,100679.56
2023-05-05T03:59:19.853Z,100685.63
2023-05-05T04:01:49.074Z,100679.91
2023-05-05T04:04:16.470Z,100659.75
2023-05-05T04:06:43.085Z,100673.66
2023-05-05T04:09:09.733Z,100688.97
2023-05-05T04:11:36.264Z,100676.72
2023-05-05T04:14:02.777Z,100686.28
2023-05-05T04:16:29.406Z,100694.81
2023-05-05T04:18:55.962Z,100668.13
2023-05-05T04:21:22.427Z,100703.56
2023-05-05T04:23:49.268Z,100698.97
2023-05-05T04:26:15.923Z,100707.72
2023-05-05T04:28:42.859Z,100681.91
2023-05-05T04:31:10.457Z,100700.38
2023-05-05T04:33:37.032Z,100712.41
2023-05-05T04:36:03.759Z,100691.97
2023-05-05T04:38:30.359Z,100715.50
2023-05-05T04:40:56.943Z,100726.44
2023-05-05T04:43:23.532Z,100690.34
2023-05-05T04:45:56.630Z,100717.25
2023-05-05T04:48:23.230Z,100688.19
2023-05-05T04:50:49.765Z,100720.81
2023-05-05T04:53:16.337Z,100719.50
2023-05-05T04:55:42.849Z,100722.69
2023-05-05T04:58:09.458Z,100679.09
2023-05-05T05:00:37.407Z,100718.97
2023-05-05T05:03:04.640Z,100713.03
2023-05-05T05:05:31.220Z,100726.53
2023-05-05T05:07:57.825Z,100702.69
2023-05-05T05:10:24.500Z,100711.53
2023-05-05T05:12:51.088Z,100712.41
2023-05-05T05:15:17.982Z,100712.72
2023-05-05T05:17:44.723Z,100698.34
2023-05-05T05:20:11.704Z,100727.69
2023-05-05T05:22:39.225Z,100740.22
2023-05-05T05:25:06.264Z,100722.72
2023-05-05T05:27:32.847Z,100729.50
2023-05-05T05:29:59.646Z,100721.97
2023-05-05T05:32:26.412Z,100746.41
2023-05-05T05:34:53.088Z,100749.25
2023-05-05T05:37:20.208Z,100754.47
2023-05-05T05:39:53.135Z,100751.41
2023-05-05T05:42:20.041Z,100748.13
2023-05-05T05:44:46.680Z,100754.94
2023-05-05T05:47:13.439Z,100753.28
2023-05-05T05:49:39.966Z,100750.41
2023-05-05T05:52:06.485Z,100770.88
2023-05-05T05:54:35.497Z,100755.84
2023-05-05T05:57:02.569Z,100777.00
2023-05-05T05:59:29.131Z,100770.91
2023-05-05T06:01:56.319Z,100781.47
2023-05-05T06:04:23.066Z,100778.09
2023-05-05T06:06:49.802Z,100769.31
2023-05-05T06:09:16.493Z,100786.75
2023-05-05T06:11:43.104Z,100787.72
2023-05-05T06:14:09.767Z,100796.41
2023-05-05T06:16:36.381Z,100803.97
2023-05-05T06:19:03.228Z,100787.34
2023-05-05T06:21:29.713Z,100802.41
2023-05-05T06:23:56.631Z,100794.34
2023-05-05T06:26:23.391Z,100800.13
2023-05-05T06:28:50.451Z,100810.25
2023-05-05T06:31:17.455Z,100811.25
2023-05-05T06:33:44.285Z,100804.31
2023-05-05T06:36:10.935Z,100812.53
2023-05-05T06:38:37.769Z,100806.09
2023-05-05T06:41:04.693Z,100771.63
2023-05-05T06:43:31.397Z,100797.25
2023-05-05T06:45:57.986Z,100819.00
2023-05-05T06:48:24.764Z,100829.06
2023-05-05T06:50:51.456Z,100813.53
2023-05-05T06:53:18.320Z,100827.84
2023-05-05T06:55:46.801Z,100828.31
2023-05-05T06:58:13.550Z,100817.44
2023-05-05T07:00:40.838Z,100822.28
2023-05-05T07:03:07.992Z,100819.00
2023-05-05T07:05:34.856Z,100803.03
2023-05-05T07:08:01.669Z,100821.91
2023-05-05T07:10:28.598Z,100803.59
2023-05-05T07:12:55.508Z,100816.88
2023-05-05T07:15:28.758Z,100833.41
2023-05-05T07:17:57.003Z,100780.66
2023-05-05T07:20:24.262Z,100808.38
2023-05-05T07:22:51.506Z,100828.03
2023-05-05T07:25:18.164Z,100838.28
2023-05-05T07:27:45.046Z,100843.34
2023-05-05T07:30:16.268Z,100819.81
2023-05-05T07:32:45.049Z,100845.72
2023-05-05T07:35:11.923Z,100842.78
2023-05-05T07:37:38.588Z,100823.50
2023-05-05T07:40:06.095Z,100837.94
2023-05-05T07:42:32.814Z,100832.34
2023-05-05T07:44:59.351Z,100836.84
2023-05-05T07:47:25.994Z,100846.84
2023-05-05T07:49:52.664Z,100815.03
2023-05-05T07:52:21.460Z,100846.47
2023-05-05T07:54:51.934Z,100849.47
2023-05-05T07:57:18.627Z,100850.41
2023-05-05T07:59:45.320Z,100845.31
2023-05-05T08:02:12.958Z,100852.38
2023-05-05T08:04:40.346Z,100866.31
2023-05-05T08:07:08.151Z,100869.22
2023-05-05T08:09:35.770Z,100866.06
2023-05-05T08:12:03.464Z,100868.09
2023-05-05T08:14:30.540Z,100854.09
2023-05-05T08:16:57.318Z,100846.69
2023-05-05T08:19:29.362Z,100874.88
2023-05-05T08:21:56.357Z,100873.06
2023-05-05T08:24:22.859Z,100878.06
2023-05-05T08:26:49.485Z,100879.91
2023-05-05T08:29:16.088Z,100881.13
2023-05-05T08:31:42.687Z,100883.16
2023-05-05T08:34:09.188Z,100876.19
2023-05-05T08:36:35.845Z,100864.06
2023-05-05T08:39:02.574Z,100891.50
2023-05-05T08:41:29.048Z,100893.59
2023-05-05T08:43:55.888Z,100871.31
2023-05-05T08:46:23.775Z,100883.72
2023-05-05T08:48:52.839Z,100863.06
2023-05-05T08:51:20.159Z,100892.63
2023-05-05T08:54:03.327Z,100890.97
2023-05-05T08:56:33.687Z,100877.22
2023-05-05T08:59:03.690Z,100870.09
2023-05-05T09:01:32.850Z,100851.91
2023-05-05T09:03:59.921Z,100880.94
2023-05-05T09:06:27.451Z,100857.34
2023-05-05T09:08:54.428Z,100881.66
2023-05-05T09:11:22.611Z,100866.72
2023-05-05T09:13:49.769Z,100878.88
2023-05-05T09:16:16.420Z,100874.94
2023-05-05T09:18:43.079Z,100843.69
2023-05-05T09:21:24.797Z,100869.19
2023-05-05T09:24:08.381Z,100860.56
2023-05-05T09:26:37.648Z,100840.38
2023-05-05T09:29:05.109Z,100834.16
2023-05-05T09:31:32.905Z,100857.81
2023-05-05T09:34:04.204Z,100858.56
2023-05-05T09:36:50.064Z,100853.84
2023-05-05T09:39:18.384Z,100856.28
2023-05-05T09:41:45.166Z,100853.44
2023-05-05T09:44:12.593Z,100846.97
2023-05-05T09:46:51.109Z,100860.31
2023-05-05T09:49:26.663Z,100838.13
2023-05-05T09:51:54.291Z,100844.16
2023-05-05T09:54:25.053Z,100851.59
2023-05-05T09:56:52.388Z,100853.25
2023-05-05T09:59:19.595Z,100852.25
2023-05-05T10:01:46.696Z,100847.06
2023-05-05T10:04:24.828Z,100851.38
2023-05-05T10:06:52.579Z,100843.72
2023-05-05T10:09:19.197Z,100841.56
2023-05-05T10:11:47.292Z,100840.84
2023-05-05T10:14:17.938Z,100832.41
2023-05-05T10:16:50.939Z,100840.09
2023-05-05T10:19:23.853Z,100844.41
2023-05-05T10:21:54.269Z,100836.16
2023-05-05T10:24:29.383Z,100825.72
2023-05-05T10:26:58.379Z,100835.38
2023-05-05T10:29:40.051Z,100827.63
2023-05-05T10:32:46.670Z,100790.50
2023-05-05T10:35:10.964Z,100827.28
2023-05-05T10:37:38.503Z,100824.97
2023-05-05T10:40:06.163Z,100802.47
2023-05-05T10:42:33.104Z,100813.38
2023-05-05T10:44:59.770Z,100817.63
2023-05-05T10:47:27.393Z,100790.59
2023-05-05T10:50:06.909Z,100808.03
2023-05-05T10:52:37.050Z,100803.59
2023-05-05T10:55:15.214Z,100794.03
2023-05-05T10:57:44.456Z,100790.06
2023-05-05T11:00:36.948Z,100770.66
2023-05-05T11:03:18.871Z,100785.16
2023-05-05T11:06:03.954Z,100778.56
2023-05-05T11:08:38.775Z,100770.44
2023-05-05T11:11:06.088Z,100768.31
2023-05-05T11:13:32.902Z,100766.06
2023-05-05T11:16:00.792Z,100768.22
2023-05-05T11:18:36.427Z,100772.72
2023-05-05T11:21:15.646Z,100758.56
2023-05-05T11:23:50.344Z,100734.97
2023-05-05T11:26:19.297Z,100755.63
2023-05-05T11:28:56.371Z,100749.38
2023-05-05T11:31:22.963Z,100724.25
2023-05-05T11:33:49.873Z,100743.72
2023-05-05T11:36:18.004Z,100756.75
2023-05-05T11:38:53.885Z,100752.81
2023-05-05T11:41:32.652Z,100740.78
2023-05-05T11:44:29.727Z,100723.56
2023-05-05T11:46:56.290Z,100737.44
2023-05-05T11:49:38.611Z,100739.09
2023-05-05T11:52:06.112Z,100738.78
2023-05-05T11:54:34.482Z,100723.28
2023-05-05T11:57:08.490Z,100737.06
2023-05-05T11:59:37.162Z,100725.72
2023-05-05T12:02:04.554Z,100730.25
2023-05-05T12:04:31.660Z,100728.22
2023-05-05T12:06:59.030Z,100733.56
2023-05-05T12:09:25.666Z,100693.34
2023-05-05T12:11:56.105Z,100704.66
2023-05-05T12:14:24.660Z,100737.25
2023-05-05T12:17:01.430Z,100734.03
2023-05-05T12:19:30.298Z,100731.25
2023-05-05T12:21:57.172Z,100722.66
2023-05-05T12:24:23.960Z,100729.78
2023-05-05T12:26:50.605Z,100730.19
2023-05-05T12:29:35.143Z,100728.00
2023-05-05T12:32:01.842Z,100714.63
2023-05-05T12:34:28.508Z,100729.38
2023-05-05T12:36:55.274Z,100717.69
2023-05-05T12:39:22.365Z,100737.56
2023-05-05T12:41:49.213Z,100737.34
2023-05-05T12:44:16.041Z,100710.41
2023-05-05T12:46:46.904Z,100727.94
2023-05-05T12:49:13.481Z,100724.03
2023-05-05T12:51:55.700Z,100740.56
2023-05-05T12:54:29.422Z,100747.69
2023-05-05T12:56:57.383Z,100715.41
2023-05-05T12:59:24.159Z,100746.47
2023-05-05T13:01:54.553Z,100747.06
2023-05-05T13:04:25.120Z,100732.41
2023-05-05T13:07:14.673Z,100751.84
2023-05-05T13:09:41.700Z,100721.16
2023-05-05T13:12:11.574Z,100771.09
2023-05-05T13:14:38.639Z,100758.63
2023-05-05T13:17:05.460Z,100799.38
2023-05-05T13:19:32.005Z,100816.75
2023-05-05T13:21:58.931Z,100818.66
2023-05-05T13:24:38.082Z,100823.94
2023-05-05T13:27:12.580Z,100815.34
2023-05-05T13:29:40.048Z,100805.81
2023-05-05T13:32:06.623Z,100818.25
2023-05-05T13:34:36.060Z,100801.63
2023-05-05T13:37:02.617Z,100788.84
2023-05-05T13:39:29.598Z,100816.75
2023-05-05T13:41:56.119Z,100827.50
2023-05-05T13:44:22.696Z,100801.78
2023-05-05T13:46:49.339Z,100814.53
2023-05-05T13:49:16.038Z,100812.69
2023-05-05T13:51:43.148Z,100804.00
2023-05-05T13:54:10.434Z,100799.06
2023-05-05T13:56:37.058Z,100759.97
2023-05-05T13:59:04.061Z,100752.59
2023-05-05T14:01:30.858Z,100808.25
2023-05-05T14:03:58.072Z,100815.06
2023-05-05T14:06:26.459Z,100782.97
2023-05-05T14:08:53.300Z,100786.53
2023-05-05T14:11:20.750Z,100784.66
2023-05-05T14:13:47.548Z,100791.03
2023-05-05T14:16:14.144Z,100800.88
2023-05-05T14:18:41.021Z,100739.22
2023-05-05T14:21:07.647Z,100757.91
2023-05-05T14:23:34.286Z,100769.94
2023-05-05T14:26:00.978Z,100773.63
2023-05-05T14:28:27.558Z,100763.81
2023-05-05T14:30:54.218Z,100684.38
2023-05-05T14:33:22.081Z,100772.44
2023-05-05T14:35:48.761Z,100751.84
2023-05-05T14:38:15.586Z,100776.13
2023-05-05T14:40:42.200Z,100754.00
2023-05-05T14:43:08.735Z,100759.16
2023-05-05T14:45:35.349Z,100796.44
2023-05-05T14:48:02.510Z,100760.50
2023-05-05T14:50:29.231Z,100786.34
2023-05-05T14:52:55.764Z,100798.63
2023-05-05T14:55:22.336Z,100780.94
2023-05-05T14:57:48.765Z,100803.84
2023-05-05T15:00:15.612Z,100798.06
2023-05-05T15:02:42.304Z,100785.72
2023-05-05T15:05:09.338Z,100791.28
2023-05-05T15:07:35.939Z,100775.53
2023-05-05T15:10:02.852Z,100748.53
2023-05-05T15:12:29.398Z,100775.56
2023-05-05T15:14:55.993Z,100792.00
2023-05-05T15:17:22.866Z,100780.66
2023-05-05T15:19:49.738Z,100774.91
2023-05-05T15:22:16.368Z,100769.47
2023-05-05T15:24:42.910Z,100777.38
2023-05-05T15:27:09.466Z,100784.31
2023-05-05T15:29:36.128Z,100778.88
2023-05-05T15:32:02.753Z,100780.84
2023-05-05T15:34:29.488Z,100767.34
2023-05-05T15:36:56.084Z,100794.78
2023-05-05T15:39:22.714Z,100759.59
2023-05-05T15:41:49.307Z,100803.16
2023-05-05T15:44:16.022Z,100798.13
2023-05-05T15:46:42.602Z,100778.59
2023-05-05T15:49:09.201Z,100792.59
2023-05-05T15:51:35.841Z,100801.44
2023-05-05T15:54:02.443Z,100791.38
2023-05-05T15:56:29.494Z,100795.41
2023-05-05T15:58:56.706Z,100820.03
2023-05-05T16:01:23.652Z,100810.16
2023-05-05T16:03:50.331Z,100819.94
2023-05-05T16:06:16.901Z,100831.06
2023-05-05T16:08:43.922Z,100837.78
2023-05-05T16:11:10.756Z,100838.38
2023-05-05T16:13:39.120Z,100833.03
2023-05-05T16:16:06.833Z,100844.34
2023-05-05T16:18:33.650Z,100841.22
2023-05-05T16:21:00.751Z,100828.09
2023-05-05T16:23:27.330Z,100838.22
2023-05-05T16:25:54.091Z,100862.78
2023-05-05T16:28:20.829Z,100873.03
2023-05-05T16:30:47.675Z,100876.50
2023-05-05T16:33:14.211Z,100880.41
2023-05-05T16:35:44.189Z,100868.75
2023-05-05T16:38:10.817Z,100889.13
2023-05-05T16:40:37.890Z,100891.56
2023-05-05T16:43:04.456Z,100890.34
2023-05-05T16:45:31.338Z,100897.31
2023-05-05T16:47:57.919Z,100888.66
2023-05-05T16:50:24.563Z,100866.59
2023-05-05T16:52:51.410Z,100888.59
2023-05-05T16:55:18.043Z,100903.22
2023-05-05T16:57:44.552Z,100905.53
2023-05-05T17:00:12.168Z,100906.75
2023-05-05T17:02:38.710Z,100899.50
2023-05-05T17:05:06.055Z,100887.56
2023-05-05T17:07:32.803Z,100897.00
2023-05-05T17:09:59.516Z,100866.94
2023-05-05T17:12:26.160Z,100898.94
2023-05-05T17:14:52.826Z,100853.63
2023-05-05T17:17:19.616Z,100892.06
2023-05-05T17:19:46.244Z,100898.09
2023-05-05T17:22:13.091Z,100886.69
2023-05-05T17:24:39.695Z,100874.09
2023-05-05T17:27:06.734Z,100884.50
2023-05-05T17:29:36.766Z,100883.63
2023-05-05T17:32:03.525Z,100873.31
2023-05-05T17:34:30.142Z,100792.56
2023-05-05T17:36:57.047Z,100869.84
2023-05-05T17:39:23.527Z,100875.66
2023-05-05T17:41:51.291Z,100859.97
2023-05-05T17:44:17.837Z,100877.53
2023-05-05T17:46:44.623Z,100875.28
2023-05-05T17:49:11.255Z,100863.25
2023-05-05T17:51:37.965Z,100872.88
2023-05-05T17:54:04.773Z,100834.69
2023-05-05T17:56:31.500Z,100855.50
2023-05-05T17:58:58.068Z,100868.44
2023-05-05T18:01:26.559Z,100880.28
2023-05-05T18:03:53.462Z,100878.72
2023-05-05T18:06:20.214Z,100853.16
2023-05-05T18:08:46.759Z,100893.34
2023-05-05T18:11:13.347Z,100892.19
2023-05-05T18:13:39.927Z,100884.19
2023-05-05T18:16:06.909Z,100874.22
2023-05-05T18:18:33.785Z,100889.13
2023-05-05T18:21:00.553Z,100865.91
2023-05-05T18:23:27.843Z,100893.59
2023-05-05T18:25:54.482Z,100900.81
2023-05-05T18:28:21.444Z,100899.16
2023-05-05T18:30:48.051Z,100887.06
2023-05-05T18:33:14.815Z,100860.41
2023-05-05T18:35:41.467Z,100890.50
2023-05-05T18:38:08.032Z,100892.44
2023-05-05T18:40:34.642Z,100856.88
2023-05-05T18:43:01.506Z,100873.47
2023-05-05T18:45:28.074Z,100902.38
2023-05-05T18:47:56.418Z,100901.22
2023-05-05T18:50:23.250Z,100905.03
2023-05-05T18:52:49.810Z,100875.81
2023-05-05T18:55:16.306Z,100863.34
2023-05-05T18:57:43.067Z,100903.03
2023-05-05T19:00:10.340Z,100878.28
2023-05-05T19:02:37.148Z,100894.53
2023-05-05T19:05:04.010Z,100871.16
2023-05-05T19:07:35.381Z,100867.13
2023-05-05T19:10:04.408Z,100888.97
2023-05-05T19:12:31.323Z,100891.84
2023-05-05T19:14:57.891Z,100865.69
2023-05-05T19:17:24.621Z,100878.19
2023-05-05T19:19:51.521Z,100871.59
2023-05-05T19:22:18.131Z,100899.59
2023-05-05T19:24:44.759Z,100901.34
2023-05-05T19:27:15.445Z,100903.88
2023-05-05T19:29:42.852Z,100901.03
2023-05-05T19:32:09.624Z,100892.34
2023-05-05T19:34:36.306Z,100891.31
2023-05-05T19:37:02.857Z,100881.22
2023-05-05T19:39:29.586Z,100833.06
2023-05-05T19:41:56.158Z,100893.97
2023-05-05T19:44:22.917Z,100899.56
2023-05-05T19:46:49.469Z,100897.81
2023-05-05T19:49:16.407Z,100899.44
2023-05-05T19:51:43.756Z,100870.09
2023-05-05T19:54:10.634Z,100801.38
2023-05-05T19:56:37.320Z,100894.28
2023-05-05T19:59:06.370Z,100896.06
2023-05-05T20:01:33.893Z,100864.09
2023-05-05T20:04:01.081Z,100912.19
2023-05-05T20:06:27.668Z,100896.19
2023-05-05T20:08:55.364Z,100913.59
2023-05-05T20:11:22.259Z,100916.56
2023-05-05T20:13:49.898Z,100912.06
2023-05-05T20:16:16.652Z,100894.09
2023-05-05T20:18:43.913Z,100897.94
2023-05-05T20:21:10.633Z,100912.03
2023-05-05T20:23:37.580Z,100882.03
2023-05-05T20:26:04.288Z,100894.56
2023-05-05T20:28:34.381Z,100895.25
2023-05-05T20:31:01.272Z,100919.09
2023-05-05T20:33:28.648Z,100913.69
2023-05-05T20:35:55.279Z,100921.63
2023-05-05T20:38:21.863Z,100930.38
2023-05-05T20:40:48.408Z,100884.34
2023-05-05T20:43:15.027Z,100884.44
2023-05-05T20:45:42.056Z,100911.03
2023-05-05T20:48:11.231Z,100913.25
2023-05-05T20:50:39.048Z,100921.38
2023-05-05T20:53:07.960Z,100875.28
2023-05-05T20:55:34.918Z,100899.47
2023-05-05T20:58:01.562Z,100919.22
2023-05-05T21:00:28.325Z,100909.03
2023-05-05T21:02:56.890Z,100886.69
2023-05-05T21:05:24.261Z,100883.66
2023-05-05T21:07:53.358Z,100903.59
2023-05-05T21:10:20.705Z,100899.66
2023-05-05T21:12:47.275Z,100860.34
2023-05-05T21:15:14.151Z,100911.19
2023-05-05T21:17:40.832Z,100904.06
2023-05-05T21:20:08.537Z,100911.56
2023-05-05T21:22:35.431Z,100914.78
2023-05-05T21:25:19.303Z,100913.94
2023-05-05T21:27:47.394Z,100913.94
2023-05-05T21:30:14.268Z,100917.38
2023-05-05T21:32:41.512Z,100917.16
2023-05-05T21:35:08.900Z,100917.94
2023-05-05T21:37:38.821Z,100900.88
2023-05-05T21:40:09.296Z,100929.31
2023-05-05T21:42:36.416Z,100903.22
2023-05-05T21:45:03.174Z,100922.50
2023-05-05T21:47:30.045Z,100928.41
2023-05-05T21:49:58.074Z,100927.13
2023-05-05T21:52:24.966Z,100924.72
2023-05-05T21:54:51.474Z,100920.63
2023-05-05T21:57:18.293Z,100928.41
2023-05-05T21:59:44.844Z,100922.44
2023-05-05T22:02:11.641Z,100902.16
2023-05-05T22:04:38.128Z,100885.00
2023-05-05T22:07:05.028Z,100921.28
2023-05-05T22:09:31.591Z,100917.78
2023-05-05T22:11:58.396Z,100919.50
2023-05-05T22:14:25.092Z,100912.88
2023-05-05T22:16:51.787Z,100900.38
2023-05-05T22:19:18.340Z,100911.72
2023-05-05T22:21:45.068Z,100838.63
2023-05-05T22:24:11.610Z,100882.44
2023-05-05T22:26:42.913Z,100921.75
2023-05-05T22:29:10.638Z,100897.63
2023-05-05T22:31:37.451Z,100928.63
2023-05-05T22:34:04.155Z,100901.00
2023-05-05T22:36:31.451Z,100926.41
2023-05-05T22:38:58.206Z,100923.13
2023-05-05T22:41:24.936Z,100923.38
2023-05-05T22:43:51.634Z,100915.69
2023-05-05T22:46:18.242Z,100904.47
2023-05-05T22:48:44.861Z,100920.63
2023-05-05T22:51:11.448Z,100909.41
2023-05-05T22:53:38.649Z,100924.22
2023-05-05T22:56:06.256Z,100917.84
2023-05-05T22:58:32.830Z,100926.41
2023-05-05T23:00:59.630Z,100909.69
2023-05-05T23:03:26.683Z,100904.19
2023-05-05T23:05:53.203Z,100927.91
2023-05-05T23:08:20.507Z,100921.34
2023-05-05T23:10:47.040Z,100892.41
2023-05-05T23:13:13.553Z,100892.50
2023-05-05T23:15:41.198Z,100909.47
2023-05-05T23:18:07.935Z,100929.47
2023-05-05T23:20:34.557Z,100927.41
2023-05-05T23:23:01.252Z,100922.28
2023-05-05T23:25:27.804Z,100920.91
2023-05-05T23:27:54.394Z,100929.34
2023-05-05T23:30:21.203Z,100909.34
2023-05-05T23:32:48.080Z,100905.84
2023-05-05T23:35:14.616Z,100919.00
2023-05-05T23:37:41.364Z,100918.25
2023-05-05T23:40:08.601Z,100916.09
2023-05-05T23:42:35.414Z,100933.16
2023-05-05T23:45:01.939Z,100902.00
2023-05-05T23:47:28.673Z,100931.13
2023-05-05T23:49:55.286Z,100931.81
2023-05-05T23:52:22.521Z,100924.41
2023-05-05T23:54:49.311Z,100931.47
2023-05-05T23:57:16.040Z,100888.03
2023-05-05T23:59:42.557Z,100904.88
